createdAt,value
2019-03-06T00:03:55.292Z,7.69
2019-03-06T00:07:59.953Z,7.72
2019-03-06T00:12:04.376Z,7.69
2019-03-06T00:16:09.294Z,7.62
2019-03-06T00:20:13.525Z,7.60
2019-03-06T00:24:17.997Z,7.59
2019-03-06T00:28:22.300Z,7.54
2019-03-06T00:32:28.295Z,7.49
2019-03-06T00:36:33.922Z,7.47
2019-03-06T00:41:06.229Z,7.50
2019-03-06T00:45:10.532Z,7.46
2019-03-06T00:49:15.916Z,7.40
2019-03-06T00:53:20.243Z,7.36
2019-03-06T00:57:24.493Z,7.34
2019-03-06T01:01:29.369Z,7.33
2019-03-06T01:05:33.559Z,7.31
2019-03-06T01:09:38.511Z,7.27
2019-03-06T01:13:42.665Z,7.31
2019-03-06T01:17:47.539Z,7.31
2019-03-06T01:21:51.733Z,7.32
2019-03-06T01:25:58.266Z,7.33
2019-03-06T01:30:02.471Z,7.34
2019-03-06T01:34:18.085Z,7.32
2019-03-06T01:38:40.771Z,7.32
2019-03-06T01:42:59.385Z,7.32
2019-03-06T01:47:03.860Z,7.29
2019-03-06T01:51:09.067Z,7.27
2019-03-06T01:55:16.563Z,7.26
2019-03-06T01:59:20.776Z,7.25
2019-03-06T02:03:26.518Z,7.28
2019-03-06T02:07:30.679Z,7.20
2019-03-06T02:11:35.570Z,7.22
2019-03-06T02:15:40.033Z,7.20
2019-03-06T02:19:44.525Z,7.22
2019-03-06T02:23:48.847Z,7.19
2019-03-06T02:27:53.159Z,7.16
2019-03-06T02:31:57.701Z,7.13
2019-03-06T02:36:02.093Z,7.11
2019-03-06T02:40:06.549Z,7.08
2019-03-06T02:44:11.035Z,7.06
2019-03-06T02:48:15.253Z,7.03
2019-03-06T02:52:19.891Z,7.00
2019-03-06T02:56:24.196Z,6.99
2019-03-06T03:00:46.283Z,6.94
2019-03-06T03:05:06.170Z,6.95
2019-03-06T03:09:18.740Z,6.93
2019-03-06T03:13:22.967Z,6.97
2019-03-06T03:17:27.426Z,6.98
2019-03-06T03:21:31.683Z,7.01
2019-03-06T03:25:36.237Z,7.00
2019-03-06T03:29:40.491Z,6.96
2019-03-06T03:33:44.811Z,6.99
2019-03-06T03:37:49.032Z,7.00
2019-03-06T03:41:53.235Z,7.02
2019-03-06T03:45:57.459Z,6.98
2019-03-06T03:50:01.695Z,6.91
2019-03-06T03:54:05.904Z,6.83
2019-03-06T03:58:10.154Z,6.71
2019-03-06T04:02:14.863Z,6.68
2019-03-06T04:06:19.745Z,6.68
2019-03-06T04:10:23.994Z,6.66
2019-03-06T04:14:28.199Z,6.62
2019-03-06T04:18:32.442Z,6.58
2019-03-06T04:22:37.008Z,6.55
2019-03-06T04:26:41.254Z,6.52
2019-03-06T04:30:45.459Z,6.50
2019-03-06T04:34:49.897Z,6.50
2019-03-06T04:38:55.218Z,6.52
2019-03-06T04:42:59.720Z,6.54
2019-03-06T04:47:03.992Z,6.54
2019-03-06T04:51:08.195Z,6.57
2019-03-06T04:55:13.436Z,6.58
2019-03-06T04:59:17.611Z,6.59
2019-03-06T05:03:22.026Z,6.56
2019-03-06T05:07:26.318Z,6.52
2019-03-06T05:11:30.526Z,6.48
2019-03-06T05:15:35.105Z,6.46
2019-03-06T05:19:40.954Z,6.40
2019-03-06T05:23:45.287Z,6.37
2019-03-06T05:27:49.945Z,6.39
2019-03-06T05:32:25.711Z,6.41
2019-03-06T05:36:59.409Z,6.37
2019-03-06T05:41:03.598Z,6.29
2019-03-06T05:45:08.491Z,6.30
2019-03-06T05:49:12.669Z,6.27
2019-03-06T05:53:17.022Z,6.29
2019-03-06T05:57:21.418Z,6.30
2019-03-06T06:01:25.756Z,6.28
2019-03-06T06:05:30.226Z,6.26
2019-03-06T06:09:34.605Z,6.24
2019-03-06T06:13:38.913Z,6.25
2019-03-06T06:17:43.210Z,6.29
2019-03-06T06:22:04.707Z,6.36
2019-03-06T06:26:08.900Z,6.44
2019-03-06T06:30:14.542Z,6.50
2019-03-06T06:34:19.949Z,6.58
2019-03-06T06:38:24.235Z,6.66
2019-03-06T06:42:28.530Z,6.75
2019-03-06T06:46:32.816Z,6.75
2019-03-06T06:50:37.519Z,6.75
2019-03-06T06:54:53.049Z,6.76
2019-03-06T06:59:30.838Z,6.75
2019-03-06T07:04:21.754Z,6.73
2019-03-06T07:08:46.618Z,6.75
2019-03-06T07:13:28.215Z,6.77
2019-03-06T07:17:38.809Z,6.69
2019-03-06T07:22:02.123Z,6.72
2019-03-06T07:26:30.592Z,6.77
2019-03-06T07:31:12.012Z,6.88
2019-03-06T07:36:16.414Z,6.99
2019-03-06T07:40:26.852Z,7.05
2019-03-06T07:44:50.234Z,7.03
2019-03-06T07:49:16.326Z,7.07
2019-03-06T07:53:52.820Z,7.15
2019-03-06T07:58:32.995Z,7.29
2019-03-06T08:02:57.326Z,7.45
2019-03-06T08:07:07.279Z,7.64
2019-03-06T08:11:19.946Z,7.75
2019-03-06T08:15:33.920Z,7.85
2019-03-06T08:19:57.102Z,7.91
2019-03-06T08:24:23.538Z,8.02
2019-03-06T08:28:27.778Z,8.13
2019-03-06T08:32:33.546Z,8.28
2019-03-06T08:36:37.775Z,8.35
2019-03-06T08:40:42.118Z,8.44
2019-03-06T08:44:46.339Z,8.54
2019-03-06T08:48:58.958Z,8.61
2019-03-06T08:53:19.308Z,8.68
2019-03-06T08:57:48.695Z,8.77
2019-03-06T09:02:15.824Z,8.81
2019-03-06T09:06:48.107Z,8.93
2019-03-06T09:11:23.356Z,9.07
2019-03-06T09:15:38.067Z,9.14
2019-03-06T09:20:16.780Z,9.18
2019-03-06T09:24:46.452Z,9.22
2019-03-06T09:33:12.660Z,9.39
2019-03-06T09:37:27.568Z,9.51
2019-03-06T09:41:53.506Z,9.65
2019-03-06T09:46:19.737Z,9.75
2019-03-06T09:50:29.043Z,9.90
2019-03-06T09:54:47.717Z,9.98
2019-03-06T09:59:06.388Z,10.10
2019-03-06T10:03:35.509Z,10.15
2019-03-06T10:07:50.849Z,10.32
2019-03-06T10:12:17.004Z,10.48
2019-03-06T10:16:25.774Z,10.58
2019-03-06T10:20:30.024Z,10.72
2019-03-06T10:24:34.276Z,10.78
2019-03-06T10:28:38.478Z,10.87
2019-03-06T10:32:43.311Z,11.01
2019-03-06T10:36:47.550Z,11.19
2019-03-06T10:40:51.775Z,11.35
2019-03-06T10:44:55.953Z,11.45
2019-03-06T10:49:00.171Z,11.57
2019-03-06T10:53:04.745Z,11.61
2019-03-06T10:57:09.192Z,11.96
2019-03-06T11:01:14.002Z,11.96
2019-03-06T11:05:26.263Z,12.10
2019-03-06T11:09:30.839Z,12.23
2019-03-06T11:13:35.071Z,12.48
2019-03-06T11:17:39.886Z,12.55
2019-03-06T11:21:44.373Z,12.55
2019-03-06T11:25:49.792Z,12.52
2019-03-06T11:29:54.003Z,12.50
2019-03-06T11:33:58.385Z,12.48
2019-03-06T11:38:02.729Z,12.49
2019-03-06T11:42:07.101Z,12.58
2019-03-06T11:46:11.716Z,12.61
2019-03-06T11:50:16.637Z,12.69
2019-03-06T11:54:20.852Z,12.78
2019-03-06T11:58:25.075Z,12.86
2019-03-06T12:02:29.269Z,13.08
2019-03-06T12:06:33.499Z,13.08
2019-03-06T12:10:38.175Z,13.09
2019-03-06T12:14:42.589Z,13.11
2019-03-06T12:18:47.642Z,13.09
2019-03-06T12:22:52.046Z,13.15
2019-03-06T12:26:56.880Z,13.15
2019-03-06T12:31:01.683Z,13.27
2019-03-06T12:35:06.573Z,13.33
2019-03-06T12:39:11.574Z,13.36
2019-03-06T12:43:16.258Z,13.43
2019-03-06T12:47:20.654Z,13.49
2019-03-06T12:51:26.547Z,13.52
2019-03-06T12:55:32.044Z,13.51
2019-03-06T12:59:36.260Z,13.64
2019-03-06T13:03:41.074Z,13.73
2019-03-06T13:07:45.316Z,13.78
2019-03-06T13:11:50.590Z,13.81
2019-03-06T13:15:55.178Z,13.87
2019-03-06T13:20:00.344Z,13.92
2019-03-06T13:24:05.338Z,13.94
2019-03-06T13:28:10.307Z,13.94
2019-03-06T13:32:15.710Z,13.98
2019-03-06T13:36:20.388Z,14.04
2019-03-06T13:40:26.646Z,14.11
2019-03-06T13:44:31.989Z,14.11
2019-03-06T13:48:36.337Z,14.12
2019-03-06T13:52:40.788Z,14.16
2019-03-06T13:56:45.336Z,14.11
2019-03-06T14:00:49.664Z,14.06
2019-03-06T14:04:54.359Z,14.01
2019-03-06T14:08:58.653Z,14.00
2019-03-06T14:13:03.793Z,13.99
2019-03-06T14:17:08.497Z,14.05
2019-03-06T14:21:15.724Z,14.09
2019-03-06T14:25:22.860Z,14.11
2019-03-06T14:29:27.690Z,14.12
2019-03-06T14:33:49.649Z,14.12
2019-03-06T14:37:54.090Z,14.10
2019-03-06T14:42:00.751Z,14.06
2019-03-06T14:46:05.176Z,14.01
2019-03-06T14:50:10.525Z,13.98
2019-03-06T14:54:14.690Z,13.97
2019-03-06T14:58:19.491Z,14.00
2019-03-06T15:02:25.129Z,14.03
2019-03-06T15:06:30.617Z,14.04
2019-03-06T15:10:42.747Z,14.04
2019-03-06T15:14:41.601Z,14.02
2019-03-06T15:18:48.178Z,13.98
2019-03-06T15:22:53.285Z,13.94
2019-03-06T15:26:58.692Z,13.91
2019-03-06T15:31:03.122Z,13.88
2019-03-06T15:35:09.389Z,13.85
2019-03-06T15:39:42.693Z,13.85
2019-03-06T15:43:42.155Z,13.83
2019-03-06T15:47:47.196Z,13.85
2019-03-06T15:51:51.473Z,13.83
2019-03-06T15:55:56.226Z,13.83
2019-03-06T16:00:01.058Z,13.82
2019-03-06T16:04:07.032Z,13.82
2019-03-06T16:08:13.272Z,13.77
2019-03-06T16:12:17.725Z,13.71
2019-03-06T16:16:22.059Z,13.64
2019-03-06T16:20:26.665Z,13.60
2019-03-06T16:24:31.101Z,13.52
2019-03-06T16:28:35.679Z,13.45
2019-03-06T16:32:41.763Z,13.42
2019-03-06T16:36:45.955Z,13.39
2019-03-06T16:40:50.166Z,13.36
2019-03-06T16:44:54.415Z,13.33
2019-03-06T16:48:59.027Z,13.31
2019-03-06T16:53:03.273Z,13.25
2019-03-06T16:57:07.661Z,13.23
2019-03-06T17:01:12.025Z,13.19
2019-03-06T17:05:19.320Z,13.16
2019-03-06T17:09:23.713Z,13.09
2019-03-06T17:13:28.179Z,13.06
2019-03-06T17:17:32.783Z,13.04
2019-03-06T17:21:37.008Z,12.99
2019-03-06T17:25:41.231Z,12.99
2019-03-06T17:29:45.464Z,12.98
2019-03-06T17:33:49.893Z,12.94
2019-03-06T17:37:54.586Z,12.92
2019-03-06T17:41:58.897Z,12.90
2019-03-06T17:46:03.907Z,12.85
2019-03-06T17:50:08.694Z,12.84
2019-03-06T17:54:13.134Z,12.77
2019-03-06T17:58:17.711Z,12.77
2019-03-06T18:02:21.986Z,12.73
2019-03-06T18:06:26.898Z,12.71
2019-03-06T18:10:31.300Z,12.68
2019-03-06T18:14:36.162Z,12.61
2019-03-06T18:18:40.598Z,12.61
2019-03-06T18:22:45.503Z,12.60
2019-03-06T18:26:50.202Z,12.55
2019-03-06T18:30:54.980Z,12.49
2019-03-06T18:34:59.196Z,12.47
2019-03-06T18:39:05.555Z,12.42
2019-03-06T18:43:12.188Z,12.37
2019-03-06T18:47:17.108Z,12.34
2019-03-06T18:51:21.903Z,12.30
2019-03-06T18:55:28.444Z,12.33
2019-03-06T18:59:33.475Z,12.24
2019-03-06T19:07:54.636Z,12.22
2019-03-06T19:11:58.842Z,12.15
2019-03-06T19:16:04.086Z,12.10
2019-03-06T19:20:08.931Z,12.07
2019-03-06T19:24:13.266Z,12.02
2019-03-06T19:28:23.969Z,12.02
2019-03-06T19:32:28.213Z,11.99
2019-03-06T19:36:33.420Z,11.94
2019-03-06T19:40:37.728Z,11.94
2019-03-06T19:44:43.736Z,11.90
2019-03-06T19:48:49.652Z,11.87
2019-03-06T19:52:53.939Z,11.83
2019-03-06T19:56:59.024Z,11.81
2019-03-06T20:01:03.238Z,11.81
2019-03-06T20:05:07.961Z,11.81
2019-03-06T20:09:27.950Z,11.81
2019-03-06T20:13:32.952Z,11.82
2019-03-06T20:17:37.202Z,11.80
2019-03-06T20:25:51.209Z,11.78
2019-03-06T20:29:55.519Z,11.79
2019-03-06T20:33:59.858Z,11.79
2019-03-06T20:38:04.597Z,11.80
2019-03-06T20:42:09.911Z,11.80
2019-03-06T20:46:14.627Z,11.79
2019-03-06T20:50:19.077Z,11.76
2019-03-06T20:54:23.463Z,11.72
2019-03-06T20:58:27.753Z,11.69
2019-03-06T21:02:32.643Z,11.68
2019-03-06T21:06:38.957Z,11.66
2019-03-06T21:10:43.183Z,11.61
2019-03-06T21:14:47.424Z,11.61
2019-03-06T21:18:51.669Z,11.58
2019-03-06T21:22:55.919Z,11.57
2019-03-06T21:27:00.475Z,11.58
2019-03-06T21:31:04.708Z,11.56
2019-03-06T21:35:09.313Z,11.53
2019-03-06T21:39:22.760Z,11.48
2019-03-06T21:43:27.340Z,11.46
2019-03-06T21:47:31.735Z,11.43
2019-03-06T21:51:36.159Z,11.41
2019-03-06T21:55:40.412Z,11.41
2019-03-06T21:59:44.740Z,11.40
2019-03-06T22:03:48.975Z,11.37
2019-03-06T22:07:53.359Z,11.36
2019-03-06T22:11:57.841Z,11.32
2019-03-06T22:16:02.720Z,11.29
2019-03-06T22:20:07.921Z,11.26
2019-03-06T22:24:12.166Z,11.23
2019-03-06T22:28:16.442Z,11.22
2019-03-06T22:32:20.759Z,11.17
2019-03-06T22:36:25.031Z,11.14
2019-03-06T22:40:29.257Z,11.09
2019-03-06T22:44:33.843Z,11.06
2019-03-06T22:48:38.098Z,11.03
2019-03-06T22:52:42.325Z,10.98
2019-03-06T22:56:46.746Z,10.95
2019-03-06T23:00:56.454Z,10.92
2019-03-06T23:05:01.244Z,10.92
2019-03-06T23:09:09.339Z,10.89
2019-03-06T23:13:13.598Z,10.88
2019-03-06T23:17:18.221Z,10.83
2019-03-06T23:21:22.448Z,10.78
2019-03-06T23:25:26.635Z,10.73
2019-03-06T23:29:30.994Z,10.69
2019-03-06T23:33:35.314Z,10.69
2019-03-06T23:37:39.626Z,10.68
2019-03-06T23:41:43.932Z,10.58
2019-03-06T23:45:49.975Z,10.50
2019-03-06T23:49:54.334Z,10.43
2019-03-06T23:53:58.599Z,10.36
2019-03-06T23:58:02.898Z,10.31
